• Join FlightAware (Why Join?)
  • Login
  • US Flag 
01:28AM EDT


 

Airport Tracker/Info


-or-


 

Live Flight TrackerFlight Track Log ✈ PDT4480 ✈ 19-Apr-2013 ✈ KPHL - KISP

Flight Track Log - Related Links

Times and Time Zones

All times are in EDT time to prevent confusion due to time zone crossing. See the PDT4480 flight status page for this flight to view local times or setup timezone preferences in your user account.

Time Position Orientation Groundspeed Altitude Reporting Facility
EDT Latitude Longitude Course Direction KTS MPH feet Rate Location/Type
03:18PM 39.8617 -75.2678 75° East 118 136 600  Level FAA TRACON SMA TRACON (SMA)
03:19PM 39.8514 -75.2769 214° Southwest 105 121 1,200 1,800 Climbing FAA TRACON SMA TRACON (SMA)
03:19PM 39.8431 -75.2833 210° Southwest 103 119 1,800 1,620 Climbing FAA TRACON SMA TRACON (SMA)
03:19PM 39.8347 -75.2883 205° Southwest 108 124 2,300 1,440 Climbing FAA TRACON SMA TRACON (SMA)
03:20PM 39.8250 -75.2922 197° South 106 122 2,800 1,320 Climbing FAA TRACON SMA TRACON (SMA)
03:20PM 39.8156 -75.2983 206° Southwest 107 123 3,200 1,020 Climbing FAA TRACON SMA TRACON (SMA)
03:20PM 39.8064 -75.3019 197° South 111 128 3,500 1,200 Climbing FAA TRACON SMA TRACON (SMA)
03:21PM 39.8167 -74.9066 90° East  Level FlightAware Approximate
03:21PM 39.7964 -75.3064 199° South 117 135 4,000  Level FAA TRACON SMA TRACON (SMA)
03:21PM 39.7775 -75.3150 199° South 108 124 5,100 1,500 Climbing FAA TRACON SMA TRACON (SMA)
03:22PM 39.8000 -74.7971 90° East  Level FlightAware Approximate
03:22PM 39.7686 -75.3181 195° South 102 117 5,500  Level FAA TRACON SMA TRACON (SMA)
03:22PM 39.7583 -75.3211 193° South 100 115 6,000 1,500 Climbing FAA TRACON SMA TRACON (SMA)
03:22PM 39.7492 -75.3236 192° South 104 120 6,500 1,200 Climbing FAA TRACON SMA TRACON (SMA)
03:23PM 39.7859 -74.6869 75° East  Level FlightAware Approximate
03:23PM 39.7397 -75.3217 171° South 128 147 6,800  Level FAA TRACON SMA TRACON (SMA)
03:23PM 39.7336 -75.3006 111° Southeast 193 222 7,100 840 Climbing FAA TRACON SMA TRACON (SMA)
03:23PM 39.7367 -75.2783 80° East 213 245 7,400 1,020 Climbing FAA TRACON SMA TRACON (SMA)
03:24PM 39.7367 -75.2561 90° East 196 226 7,800 1,320 Climbing FAA TRACON SMA TRACON (SMA)
03:24PM 39.7367 -75.2283 90° East 200 230 8,300 1,200 Climbing FAA TRACON SMA TRACON (SMA)
03:24PM 39.7375 -75.2056 87° East 205 236 8,600 900 Climbing FAA TRACON SMA TRACON (SMA)
03:25PM 39.7392 -75.1769 86° East 206 237 8,900 600 Climbing FAA TRACON SMA TRACON (SMA)
03:25PM 39.7411 -75.1531 84° East 209 241 9,000 120 Climbing FAA TRACON SMA TRACON (SMA)
03:25PM 39.7444 -75.1272 80° East 238 274 9,000  Level FAA TRACON SMA TRACON (SMA)
03:26PM 39.7475 -75.1000 82° East 248 285 9,000  Level FAA TRACON SMA TRACON (SMA)
03:26PM 39.7508 -75.0644 83° East 258 297 9,000  Level FAA TRACON SMA TRACON (SMA)
03:26PM 39.7539 -75.0347 82° East 265 305 9,000  Level FAA TRACON SMA TRACON (SMA)
03:27PM 39.7586 -75.0050 78° East 269 310 9,000  Level FAA TRACON SMA TRACON (SMA)
03:27PM 39.7650 -74.9661 78° East 284 327 9,000 -180 Level FAA TRACON SMA TRACON (SMA)
03:27PM 39.7697 -74.9353 79° East 283 326 8,900 -180 Descending FAA TRACON SMA TRACON (SMA)
03:28PM 39.7761 -74.8972 78° East 285 328 8,900  Level FAA TRACON SMA TRACON (SMA)
03:28PM 39.7819 -74.8656 77° East 285 328 8,900  Level FAA TRACON SMA TRACON (SMA)
03:28PM 39.7872 -74.8364 77° East 284 327 8,900 300 Level FAA TRACON SMA TRACON (SMA)
03:29PM 39.7919 -74.8042 79° East 283 326 9,100 720 Climbing FAA TRACON SMA TRACON (SMA)
03:29PM 39.7958 -74.7686 82° East 279 321 9,400 1,020 Climbing FAA TRACON SMA TRACON (SMA)
03:29PM 39.7989 -74.7383 83° East 253 291 9,800 1,020 Climbing FAA TRACON SMA TRACON (SMA)
03:30PM 39.8014 -74.7114 83° East 248 285 10,100 900 Climbing FAA TRACON SMA TRACON (SMA)
03:30PM 39.8053 -74.6794 81° East 238 274 10,400 900 Climbing FAA TRACON SMA TRACON (SMA)
03:30PM 39.8081 -74.6536 82° East 237 273 10,700 720 Climbing FAA TRACON SMA TRACON (SMA)
03:31PM 39.8111 -74.6275 81° East 231 266 10,900 300 Climbing FAA TRACON SMA TRACON (SMA)
03:31PM 39.8142 -74.5953 83° East 235 270 10,900  Level FAA TRACON SMA TRACON (SMA)
03:31PM 39.8158 -74.5681 85° East 243 280 10,900  Level FAA TRACON SMA TRACON (SMA)
03:32PM 39.8158 -74.5397 90° East 252 290 10,900  Level FAA TRACON SMA TRACON (SMA)
03:32PM 39.8164 -74.5036 89° East 258 297 10,900  Level FAA TRACON SMA TRACON (SMA)
03:32PM 39.8164 -74.4758 90° East 259 298 10,900  Level FAA TRACON SMA TRACON (SMA)
03:33PM 39.8156 -74.4453 92° East 261 300 10,900  Level FAA TRACON SMA TRACON (SMA)
03:33PM 39.8161 -74.4083 89° East 264 304 10,900  Level FAA TRACON SMA TRACON (SMA)
03:33PM 39.8150 -74.3789 93° East 264 304 10,900  Level FAA TRACON SMA TRACON (SMA)
03:34PM 39.8144 -74.3564 92° East 265 305 10,900 60 Level FAA TRACON SMA TRACON (SMA)
03:35PM 39.8169 -74.2303 88° East 261 300 11,000  Climbing New York Center
03:36PM 39.8197 -74.1331 88° East 270 311 11,000  Level New York Center
03:37PM 39.8225 -74.0386 88° East 270 311 11,000  Level New York Center
03:38PM 39.8208 -73.9411 91° East 270 311 11,000  Level New York Center
03:39PM 39.8425 -73.8367 75° East 270 311 11,000  Level New York Center
03:40PM 39.8800 -73.7572 58° Northeast 270 311 11,000  Level New York Center
03:41PM 39.9281 -73.6700 54° Northeast 275 316 11,000 -300 Level New York Center
03:42PM 39.9842 -73.5911 47° Northeast 289 333 10,400 -660 Descending New York Center
03:44PM 40.0786 -73.4461 50° Northeast 320 368 9,400 -540 Descending Boston Center
03:45PM 40.1397 -73.3656 45° Northeast 320 368 9,000 -240 Descending Boston Center
03:46PM 40.1967 -73.2850 47° Northeast 307 353 9,000  Level Boston Center
03:47PM 40.2492 -73.2067 49° Northeast 296 341 9,000  Level Boston Center
03:48PM 40.3019 -73.1258 49° Northeast 296 341 9,000 -360 Level Boston Center
03:49PM 40.4000 -72.9833 48° Northeast 306 352 8,100 -720 Descending New York TRACON
03:50PM 40.4667 -72.9000 44° Northeast 320 368 7,100 -960 Descending New York TRACON
03:51PM 40.5500 -72.8667 17° North 297 342 6,200 -960 Descending New York TRACON
03:52PM 40.6167 -72.8500 11° North 288 331 5,200 -1,020 Descending New York TRACON
03:53PM 40.7000 -72.8333 North 280 322 4,200 -960 Descending New York TRACON
03:54PM 40.7667 -72.8333 360° North 261 300 3,300 -600 Descending New York TRACON
03:55PM 40.8333 -72.8500 349° North 238 274 3,000 -540 Descending New York TRACON
03:56PM 40.9000 -72.8667 349° North 229 264 2,300 -540 Descending New York TRACON
03:57PM 40.9333 -72.9333 304° West 181 208 2,000 -180 Descending New York TRACON
03:58PM 40.9000 -72.9667 217° Southwest 139 160 2,000  Level New York TRACON
03:59PM 40.8833 -73.0000 237° Southwest 135 155 2,000  Level New York TRACON